sensor_id;sensor_type;location;lat;lon;timestamp;temperature;humidity
67586;SHT31;55785;47.946;20.540;2022-08-03T00:01:18;21.73;66.68
67586;SHT31;55785;47.946;20.540;2022-08-03T00:03:43;21.66;66.84
67586;SHT31;55785;47.946;20.540;2022-08-03T00:06:09;21.75;66.73
67586;SHT31;55785;47.946;20.540;2022-08-03T00:08:34;21.72;66.85
67586;SHT31;55785;47.946;20.540;2022-08-03T00:10:59;21.67;66.97
67586;SHT31;55785;47.946;20.540;2022-08-03T00:13:25;21.78;66.50
67586;SHT31;55785;47.946;20.540;2022-08-03T00:15:51;21.79;66.64
67586;SHT31;55785;47.946;20.540;2022-08-03T00:18:16;21.92;66.39
67586;SHT31;55785;47.946;20.540;2022-08-03T00:20:42;21.85;66.59
67586;SHT31;55785;47.946;20.540;2022-08-03T00:23:07;22.00;66.31
67586;SHT31;55785;47.946;20.540;2022-08-03T00:25:34;21.93;66.35
67586;SHT31;55785;47.946;20.540;2022-08-03T00:27:59;22.02;66.35
67586;SHT31;55785;47.946;20.540;2022-08-03T00:30:25;22.07;66.17
67586;SHT31;55785;47.946;20.540;2022-08-03T00:32:50;22.04;66.30
67586;SHT31;55785;47.946;20.540;2022-08-03T00:35:15;22.20;65.82
67586;SHT31;55785;47.946;20.540;2022-08-03T00:37:41;22.24;65.44
67586;SHT31;55785;47.946;20.540;2022-08-03T00:40:06;22.36;64.60
67586;SHT31;55785;47.946;20.540;2022-08-03T00:42:32;22.36;64.58
67586;SHT31;55785;47.946;20.540;2022-08-03T00:44:57;22.31;64.79
67586;SHT31;55785;47.946;20.540;2022-08-03T00:47:22;22.30;64.88
67586;SHT31;55785;47.946;20.540;2022-08-03T00:49:48;22.25;64.86
67586;SHT31;55785;47.946;20.540;2022-08-03T00:52:14;22.23;64.63
67586;SHT31;55785;47.946;20.540;2022-08-03T00:54:39;22.33;64.14
67586;SHT31;55785;47.946;20.540;2022-08-03T00:57:06;22.25;64.46
67586;SHT31;55785;47.946;20.540;2022-08-03T00:59:31;22.25;64.31
67586;SHT31;55785;47.946;20.540;2022-08-03T01:01:57;22.20;64.79
67586;SHT31;55785;47.946;20.540;2022-08-03T01:04:22;22.18;64.71
67586;SHT31;55785;47.946;20.540;2022-08-03T01:07:16;22.09;64.72
67586;SHT31;55785;47.946;20.540;2022-08-03T01:10:05;22.06;64.90
67586;SHT31;55785;47.946;20.540;2022-08-03T01:12:38;22.04;64.79
67586;SHT31;55785;47.946;20.540;2022-08-03T01:18:18;21.85;65.42
67586;SHT31;55785;47.946;20.540;2022-08-03T01:20:46;21.73;65.65
67586;SHT31;55785;47.946;20.540;2022-08-03T01:31:26;21.66;64.82
67586;SHT31;55785;47.946;20.540;2022-08-03T01:34:06;21.59;64.93
67586;SHT31;55785;47.946;20.540;2022-08-03T01:36:35;21.46;65.15
67586;SHT31;55785;47.946;20.540;2022-08-03T01:39:04;21.10;67.24
67586;SHT31;55785;47.946;20.540;2022-08-03T01:41:35;20.80;67.70
67586;SHT31;55785;47.946;20.540;2022-08-03T01:44:03;20.59;68.48
67586;SHT31;55785;47.946;20.540;2022-08-03T01:46:30;20.39;69.15
67586;SHT31;55785;47.946;20.540;2022-08-03T01:48:57;20.48;68.93
67586;SHT31;55785;47.946;20.540;2022-08-03T01:51:23;20.46;69.02
67586;SHT31;55785;47.946;20.540;2022-08-03T01:53:50;20.40;69.14
67586;SHT31;55785;47.946;20.540;2022-08-03T01:56:17;20.36;69.05
67586;SHT31;55785;47.946;20.540;2022-08-03T01:58:44;20.29;69.18
67586;SHT31;55785;47.946;20.540;2022-08-03T02:01:11;20.15;69.64
67586;SHT31;55785;47.946;20.540;2022-08-03T02:03:39;20.14;69.88
67586;SHT31;55785;47.946;20.540;2022-08-03T02:06:05;20.09;69.94
67586;SHT31;55785;47.946;20.540;2022-08-03T02:08:32;20.09;70.13
67586;SHT31;55785;47.946;20.540;2022-08-03T02:10:58;20.01;69.65
67586;SHT31;55785;47.946;20.540;2022-08-03T02:13:24;19.91;69.86
67586;SHT31;55785;47.946;20.540;2022-08-03T02:15:51;19.81;70.80
67586;SHT31;55785;47.946;20.540;2022-08-03T02:18:17;19.77;70.92
67586;SHT31;55785;47.946;20.540;2022-08-03T02:20:43;19.60;71.15
67586;SHT31;55785;47.946;20.540;2022-08-03T02:23:08;19.45;70.83
67586;SHT31;55785;47.946;20.540;2022-08-03T02:25:38;19.23;71.18
67586;SHT31;55785;47.946;20.540;2022-08-03T02:28:09;18.95;72.24
67586;SHT31;55785;47.946;20.540;2022-08-03T02:30:37;19.06;71.96
67586;SHT31;55785;47.946;20.540;2022-08-03T02:33:03;18.96;72.43
67586;SHT31;55785;47.946;20.540;2022-08-03T02:35:32;18.65;71.31
67586;SHT31;55785;47.946;20.540;2022-08-03T02:38:03;18.75;71.14
67586;SHT31;55785;47.946;20.540;2022-08-03T02:40:30;18.44;72.27
67586;SHT31;55785;47.946;20.540;2022-08-03T02:43:16;18.40;73.18
67586;SHT31;55785;47.946;20.540;2022-08-03T02:45:45;18.33;73.69
67586;SHT31;55785;47.946;20.540;2022-08-03T02:48:15;18.18;74.43
67586;SHT31;55785;47.946;20.540;2022-08-03T02:50:43;18.29;73.91
67586;SHT31;55785;47.946;20.540;2022-08-03T02:53:09;18.17;74.76
67586;SHT31;55785;47.946;20.540;2022-08-03T02:55:36;18.23;74.51
67586;SHT31;55785;47.946;20.540;2022-08-03T02:58:02;18.24;74.81
67586;SHT31;55785;47.946;20.540;2022-08-03T03:00:32;18.26;74.59
67586;SHT31;55785;47.946;20.540;2022-08-03T03:02:58;18.20;74.42
67586;SHT31;55785;47.946;20.540;2022-08-03T03:05:25;18.16;74.71
67586;SHT31;55785;47.946;20.540;2022-08-03T03:07:50;17.96;74.72
67586;SHT31;55785;47.946;20.540;2022-08-03T03:10:16;17.92;74.61
67586;SHT31;55785;47.946;20.540;2022-08-03T03:12:42;17.86;75.17
67586;SHT31;55785;47.946;20.540;2022-08-03T03:15:09;17.54;75.50
67586;SHT31;55785;47.946;20.540;2022-08-03T03:17:36;17.62;75.63
67586;SHT31;55785;47.946;20.540;2022-08-03T03:20:02;17.57;76.40
67586;SHT31;55785;47.946;20.540;2022-08-03T03:22:28;17.41;76.84
67586;SHT31;55785;47.946;20.540;2022-08-03T03:24:55;17.48;77.25
67586;SHT31;55785;47.946;20.540;2022-08-03T03:27:20;17.47;77.47
67586;SHT31;55785;47.946;20.540;2022-08-03T03:29:47;17.37;76.99
67586;SHT31;55785;47.946;20.540;2022-08-03T03:32:13;17.45;77.41
67586;SHT31;55785;47.946;20.540;2022-08-03T03:34:39;17.41;77.44
67586;SHT31;55785;47.946;20.540;2022-08-03T03:37:05;17.42;77.58
67586;SHT31;55785;47.946;20.540;2022-08-03T03:39:30;17.49;77.22
67586;SHT31;55785;47.946;20.540;2022-08-03T03:41:55;17.58;77.54
67586;SHT31;55785;47.946;20.540;2022-08-03T03:44:21;17.67;77.27
67586;SHT31;55785;47.946;20.540;2022-08-03T03:46:46;17.67;77.78
67586;SHT31;55785;47.946;20.540;2022-08-03T03:49:12;17.71;77.56
67586;SHT31;55785;47.946;20.540;2022-08-03T03:51:37;17.88;77.10
67586;SHT31;55785;47.946;20.540;2022-08-03T03:54:03;17.97;76.91
67586;SHT31;55785;47.946;20.540;2022-08-03T03:56:29;18.05;76.73
67586;SHT31;55785;47.946;20.540;2022-08-03T03:58:54;18.02;76.81
67586;SHT31;55785;47.946;20.540;2022-08-03T04:01:20;18.05;76.69
67586;SHT31;55785;47.946;20.540;2022-08-03T04:03:45;18.03;76.76
67586;SHT31;55785;47.946;20.540;2022-08-03T04:06:11;18.09;76.52
67586;SHT31;55785;47.946;20.540;2022-08-03T04:08:37;18.14;76.80
67586;SHT31;55785;47.946;20.540;2022-08-03T04:11:08;18.22;76.59
67586;SHT31;55785;47.946;20.540;2022-08-03T04:13:37;18.23;76.65
67586;SHT31;55785;47.946;20.540;2022-08-03T04:16:05;18.27;76.48
67586;SHT31;55785;47.946;20.540;2022-08-03T04:18:33;18.44;76.61
67586;SHT31;55785;47.946;20.540;2022-08-03T04:21:03;18.50;76.22
67586;SHT31;55785;47.946;20.540;2022-08-03T04:23:33;18.65;76.24
67586;SHT31;55785;47.946;20.540;2022-08-03T04:26:01;18.82;75.21
67586;SHT31;55785;47.946;20.540;2022-08-03T04:28:27;18.98;75.01
67586;SHT31;55785;47.946;20.540;2022-08-03T04:30:55;19.01;75.43
67586;SHT31;55785;47.946;20.540;2022-08-03T04:33:21;19.11;74.85
67586;SHT31;55785;47.946;20.540;2022-08-03T04:35:48;19.27;74.78
67586;SHT31;55785;47.946;20.540;2022-08-03T04:38:16;19.42;74.08
67586;SHT31;55785;47.946;20.540;2022-08-03T04:40:42;19.53;73.96
67586;SHT31;55785;47.946;20.540;2022-08-03T04:43:09;19.73;73.88
67586;SHT31;55785;47.946;20.540;2022-08-03T04:45:35;19.92;73.84
67586;SHT31;55785;47.946;20.540;2022-08-03T04:48:02;20.28;72.31
67586;SHT31;55785;47.946;20.540;2022-08-03T04:50:27;20.50;72.17
67586;SHT31;55785;47.946;20.540;2022-08-03T04:52:54;20.75;71.24
67586;SHT31;55785;47.946;20.540;2022-08-03T04:55:29;21.07;69.59
67586;SHT31;55785;47.946;20.540;2022-08-03T04:57:56;21.38;68.64
67586;SHT31;55785;47.946;20.540;2022-08-03T05:00:21;21.76;68.47
67586;SHT31;55785;47.946;20.540;2022-08-03T05:02:47;22.24;65.92
67586;SHT31;55785;47.946;20.540;2022-08-03T05:05:12;22.40;65.98
67586;SHT31;55785;47.946;20.540;2022-08-03T05:07:38;22.79;64.59
67586;SHT31;55785;47.946;20.540;2022-08-03T05:10:05;22.81;64.76
67586;SHT31;55785;47.946;20.540;2022-08-03T05:12:30;23.13;63.50
67586;SHT31;55785;47.946;20.540;2022-08-03T05:14:55;23.22;63.60
67586;SHT31;55785;47.946;20.540;2022-08-03T05:17:21;23.39;62.90
67586;SHT31;55785;47.946;20.540;2022-08-03T05:19:46;23.43;62.45
67586;SHT31;55785;47.946;20.540;2022-08-03T05:22:11;23.47;62.23
67586;SHT31;55785;47.946;20.540;2022-08-03T05:24:36;23.51;61.82
67586;SHT31;55785;47.946;20.540;2022-08-03T05:27:02;23.68;62.19
67586;SHT31;55785;47.946;20.540;2022-08-03T05:29:27;23.89;60.78
67586;SHT31;55785;47.946;20.540;2022-08-03T05:31:52;24.08;60.21
67586;SHT31;55785;47.946;20.540;2022-08-03T05:34:18;24.05;61.20
67586;SHT31;55785;47.946;20.540;2022-08-03T05:36:43;24.05;60.49
67586;SHT31;55785;47.946;20.540;2022-08-03T05:39:08;24.30;59.95
67586;SHT31;55785;47.946;20.540;2022-08-03T05:41:34;24.36;60.80
67586;SHT31;55785;47.946;20.540;2022-08-03T05:43:59;24.59;59.17
67586;SHT31;55785;47.946;20.540;2022-08-03T05:46:24;24.52;59.60
67586;SHT31;55785;47.946;20.540;2022-08-03T05:48:50;24.77;56.55
67586;SHT31;55785;47.946;20.540;2022-08-03T05:51:15;24.74;57.41
67586;SHT31;55785;47.946;20.540;2022-08-03T05:53:41;25.03;57.14
67586;SHT31;55785;47.946;20.540;2022-08-03T05:56:07;25.10;55.94
67586;SHT31;55785;47.946;20.540;2022-08-03T05:58:33;25.18;55.74
67586;SHT31;55785;47.946;20.540;2022-08-03T06:00:58;25.25;56.00
67586;SHT31;55785;47.946;20.540;2022-08-03T06:03:23;25.24;54.67
67586;SHT31;55785;47.946;20.540;2022-08-03T06:05:49;25.32;54.75
67586;SHT31;55785;47.946;20.540;2022-08-03T06:08:14;25.39;54.53
67586;SHT31;55785;47.946;20.540;2022-08-03T06:10:39;25.41;54.23
67586;SHT31;55785;47.946;20.540;2022-08-03T06:13:05;25.45;54.18
67586;SHT31;55785;47.946;20.540;2022-08-03T06:15:30;25.58;54.20
67586;SHT31;55785;47.946;20.540;2022-08-03T06:17:55;25.72;54.28
67586;SHT31;55785;47.946;20.540;2022-08-03T06:20:20;25.83;53.48
67586;SHT31;55785;47.946;20.540;2022-08-03T06:22:46;25.93;53.55
67586;SHT31;55785;47.946;20.540;2022-08-03T06:25:12;25.89;51.82
67586;SHT31;55785;47.946;20.540;2022-08-03T06:27:37;25.79;51.36
67586;SHT31;55785;47.946;20.540;2022-08-03T06:30:03;25.78;52.23
67586;SHT31;55785;47.946;20.540;2022-08-03T06:32:29;25.79;52.12
67586;SHT31;55785;47.946;20.540;2022-08-03T06:34:54;25.79;51.44
67586;SHT31;55785;47.946;20.540;2022-08-03T06:37:19;25.96;52.51
67586;SHT31;55785;47.946;20.540;2022-08-03T06:39:45;26.10;51.14
67586;SHT31;55785;47.946;20.540;2022-08-03T06:42:10;26.16;51.57
67586;SHT31;55785;47.946;20.540;2022-08-03T06:44:35;26.31;51.91
67586;SHT31;55785;47.946;20.540;2022-08-03T06:47:00;26.33;51.56
67586;SHT31;55785;47.946;20.540;2022-08-03T06:49:26;26.44;52.02
67586;SHT31;55785;47.946;20.540;2022-08-03T06:51:51;26.54;50.11
67586;SHT31;55785;47.946;20.540;2022-08-03T06:54:17;26.55;51.32
67586;SHT31;55785;47.946;20.540;2022-08-03T06:56:43;26.62;50.10
67586;SHT31;55785;47.946;20.540;2022-08-03T06:59:08;26.58;50.17
67586;SHT31;55785;47.946;20.540;2022-08-03T07:01:33;26.52;50.47
67586;SHT31;55785;47.946;20.540;2022-08-03T07:03:59;26.62;50.78
67586;SHT31;55785;47.946;20.540;2022-08-03T07:06:24;26.71;50.95
67586;SHT31;55785;47.946;20.540;2022-08-03T07:08:49;26.75;50.59
67586;SHT31;55785;47.946;20.540;2022-08-03T07:11:15;26.76;50.47
67586;SHT31;55785;47.946;20.540;2022-08-03T07:13:40;26.84;50.37
67586;SHT31;55785;47.946;20.540;2022-08-03T07:16:05;26.91;50.84
67586;SHT31;55785;47.946;20.540;2022-08-03T07:18:31;27.03;50.84
67586;SHT31;55785;47.946;20.540;2022-08-03T07:20:57;27.14;50.20
67586;SHT31;55785;47.946;20.540;2022-08-03T07:23:22;27.13;51.22
67586;SHT31;55785;47.946;20.540;2022-08-03T07:25:48;27.07;49.84
67586;SHT31;55785;47.946;20.540;2022-08-03T07:28:13;27.22;50.22
67586;SHT31;55785;47.946;20.540;2022-08-03T07:30:38;27.26;50.96
67586;SHT31;55785;47.946;20.540;2022-08-03T07:33:03;27.32;50.25
67586;SHT31;55785;47.946;20.540;2022-08-03T07:35:29;27.32;50.22
67586;SHT31;55785;47.946;20.540;2022-08-03T07:37:54;27.36;49.67
67586;SHT31;55785;47.946;20.540;2022-08-03T07:40:20;27.33;50.35
67586;SHT31;55785;47.946;20.540;2022-08-03T07:42:45;27.36;50.63
67586;SHT31;55785;47.946;20.540;2022-08-03T07:45:10;27.47;49.73
67586;SHT31;55785;47.946;20.540;2022-08-03T07:47:35;27.57;50.27
67586;SHT31;55785;47.946;20.540;2022-08-03T07:50:01;27.55;49.92
67586;SHT31;55785;47.946;20.540;2022-08-03T07:52:26;27.57;49.76
67586;SHT31;55785;47.946;20.540;2022-08-03T07:54:52;27.57;49.13
67586;SHT31;55785;47.946;20.540;2022-08-03T07:57:17;27.80;48.65
67586;SHT31;55785;47.946;20.540;2022-08-03T07:59:44;27.85;48.57
67586;SHT31;55785;47.946;20.540;2022-08-03T08:02:10;27.88;48.90
67586;SHT31;55785;47.946;20.540;2022-08-03T08:04:35;27.97;48.33
67586;SHT31;55785;47.946;20.540;2022-08-03T08:07:00;28.01;48.01
67586;SHT31;55785;47.946;20.540;2022-08-03T08:09:26;28.09;48.11
67586;SHT31;55785;47.946;20.540;2022-08-03T08:11:51;28.18;47.92
67586;SHT31;55785;47.946;20.540;2022-08-03T08:14:16;28.38;47.36
67586;SHT31;55785;47.946;20.540;2022-08-03T08:16:42;28.49;47.91
67586;SHT31;55785;47.946;20.540;2022-08-03T08:19:07;28.57;47.62
67586;SHT31;55785;47.946;20.540;2022-08-03T08:21:32;28.60;46.99
67586;SHT31;55785;47.946;20.540;2022-08-03T08:23:57;28.60;46.54
67586;SHT31;55785;47.946;20.540;2022-08-03T08:26:23;28.46;46.95
67586;SHT31;55785;47.946;20.540;2022-08-03T08:28:48;28.53;47.36
67586;SHT31;55785;47.946;20.540;2022-08-03T08:31:13;28.52;46.45
67586;SHT31;55785;47.946;20.540;2022-08-03T08:33:39;28.66;45.05
67586;SHT31;55785;47.946;20.540;2022-08-03T08:36:04;28.59;45.02
67586;SHT31;55785;47.946;20.540;2022-08-03T08:38:29;28.60;44.85
67586;SHT31;55785;47.946;20.540;2022-08-03T08:40:55;28.69;45.80
67586;SHT31;55785;47.946;20.540;2022-08-03T08:43:20;28.69;44.65
67586;SHT31;55785;47.946;20.540;2022-08-03T08:45:49;28.98;44.44
67586;SHT31;55785;47.946;20.540;2022-08-03T08:48:21;28.94;44.89
67586;SHT31;55785;47.946;20.540;2022-08-03T08:50:47;29.25;44.33
67586;SHT31;55785;47.946;20.540;2022-08-03T08:53:17;29.21;43.50
67586;SHT31;55785;47.946;20.540;2022-08-03T08:55:45;29.27;43.57
67586;SHT31;55785;47.946;20.540;2022-08-03T08:58:10;29.38;42.88
67586;SHT31;55785;47.946;20.540;2022-08-03T09:00:36;29.55;42.66
67586;SHT31;55785;47.946;20.540;2022-08-03T09:03:02;29.90;42.53
67586;SHT31;55785;47.946;20.540;2022-08-03T09:05:27;30.00;41.35
67586;SHT31;55785;47.946;20.540;2022-08-03T09:07:52;29.79;41.90
67586;SHT31;55785;47.946;20.540;2022-08-03T09:10:18;30.16;39.86
67586;SHT31;55785;47.946;20.540;2022-08-03T09:12:46;29.77;39.21
67586;SHT31;55785;47.946;20.540;2022-08-03T09:15:18;29.44;41.01
67586;SHT31;55785;47.946;20.540;2022-08-03T09:17:44;29.21;41.85
67586;SHT31;55785;47.946;20.540;2022-08-03T09:20:10;28.97;41.84
67586;SHT31;55785;47.946;20.540;2022-08-03T09:22:54;29.11;42.31
67586;SHT31;55785;47.946;20.540;2022-08-03T09:25:35;29.07;43.04
67586;SHT31;55785;47.946;20.540;2022-08-03T09:28:14;28.98;41.47
67586;SHT31;55785;47.946;20.540;2022-08-03T09:30:41;28.57;42.55
67586;SHT31;55785;47.946;20.540;2022-08-03T09:33:12;28.32;44.54
67586;SHT31;55785;47.946;20.540;2022-08-03T09:35:47;28.40;45.65
67586;SHT31;55785;47.946;20.540;2022-08-03T09:38:15;28.39;43.57
67586;SHT31;55785;47.946;20.540;2022-08-03T09:40:42;28.39;43.67
67586;SHT31;55785;47.946;20.540;2022-08-03T09:43:08;28.29;43.96
67586;SHT31;55785;47.946;20.540;2022-08-03T09:45:38;28.06;43.93
67586;SHT31;55785;47.946;20.540;2022-08-03T09:50:52;28.12;44.23
67586;SHT31;55785;47.946;20.540;2022-08-03T09:53:18;28.20;44.42
67586;SHT31;55785;47.946;20.540;2022-08-03T09:58:20;28.08;43.11
67586;SHT31;55785;47.946;20.540;2022-08-03T10:00:53;28.22;43.97
67586;SHT31;55785;47.946;20.540;2022-08-03T10:03:18;28.36;43.46
67586;SHT31;55785;47.946;20.540;2022-08-03T10:05:44;28.26;43.66
67586;SHT31;55785;47.946;20.540;2022-08-03T10:08:17;28.26;43.49
67586;SHT31;55785;47.946;20.540;2022-08-03T10:10:44;28.38;42.52
67586;SHT31;55785;47.946;20.540;2022-08-03T10:13:12;28.19;42.69
67586;SHT31;55785;47.946;20.540;2022-08-03T10:15:39;28.26;42.91
67586;SHT31;55785;47.946;20.540;2022-08-03T10:18:04;28.39;42.70
67586;SHT31;55785;47.946;20.540;2022-08-03T10:20:31;28.33;43.13
67586;SHT31;55785;47.946;20.540;2022-08-03T10:22:57;28.25;43.51
67586;SHT31;55785;47.946;20.540;2022-08-03T10:25:24;28.23;42.83
67586;SHT31;55785;47.946;20.540;2022-08-03T10:27:50;28.29;43.36
67586;SHT31;55785;47.946;20.540;2022-08-03T10:30:16;28.23;43.49
67586;SHT31;55785;47.946;20.540;2022-08-03T10:32:45;28.31;42.73
67586;SHT31;55785;47.946;20.540;2022-08-03T10:35:16;28.45;43.44
67586;SHT31;55785;47.946;20.540;2022-08-03T10:37:44;28.40;42.87
67586;SHT31;55785;47.946;20.540;2022-08-03T10:40:14;28.60;43.06
67586;SHT31;55785;47.946;20.540;2022-08-03T10:42:43;28.49;43.73
67586;SHT31;55785;47.946;20.540;2022-08-03T10:45:17;28.67;41.82
67586;SHT31;55785;47.946;20.540;2022-08-03T10:47:45;28.64;42.52
67586;SHT31;55785;47.946;20.540;2022-08-03T10:50:11;28.66;42.23
67586;SHT31;55785;47.946;20.540;2022-08-03T10:52:56;28.50;42.42
67586;SHT31;55785;47.946;20.540;2022-08-03T10:55:44;28.90;41.70
67586;SHT31;55785;47.946;20.540;2022-08-03T10:58:09;29.31;43.23
67586;SHT31;55785;47.946;20.540;2022-08-03T11:00:48;29.59;41.75
67586;SHT31;55785;47.946;20.540;2022-08-03T11:03:13;30.12;40.02
67586;SHT31;55785;47.946;20.540;2022-08-03T11:05:41;30.27;39.40
67586;SHT31;55785;47.946;20.540;2022-08-03T11:08:27;30.60;38.70
67586;SHT31;55785;47.946;20.540;2022-08-03T11:10:55;30.88;38.18
67586;SHT31;55785;47.946;20.540;2022-08-03T11:13:23;30.92;38.35
67586;SHT31;55785;47.946;20.540;2022-08-03T11:15:51;30.88;37.44
67586;SHT31;55785;47.946;20.540;2022-08-03T11:18:16;31.04;36.67
67586;SHT31;55785;47.946;20.540;2022-08-03T11:20:53;30.96;36.50
67586;SHT31;55785;47.946;20.540;2022-08-03T11:23:40;31.40;36.84
67586;SHT31;55785;47.946;20.540;2022-08-03T11:26:18;31.61;36.71
67586;SHT31;55785;47.946;20.540;2022-08-03T11:28:45;31.96;35.60
67586;SHT31;55785;47.946;20.540;2022-08-03T11:34:12;32.26;35.78
67586;SHT31;55785;47.946;20.540;2022-08-03T11:39:42;31.95;35.76
67586;SHT31;55785;47.946;20.540;2022-08-03T11:44:59;31.68;35.03
67586;SHT31;55785;47.946;20.540;2022-08-03T11:47:26;31.30;37.37
67586;SHT31;55785;47.946;20.540;2022-08-03T11:49:55;31.30;36.92
67586;SHT31;55785;47.946;20.540;2022-08-03T11:52:20;31.31;36.05
67586;SHT31;55785;47.946;20.540;2022-08-03T11:54:49;31.44;36.42
67586;SHT31;55785;47.946;20.540;2022-08-03T11:57:28;31.29;36.63
67586;SHT31;55785;47.946;20.540;2022-08-03T11:59:53;31.43;35.79
67586;SHT31;55785;47.946;20.540;2022-08-03T12:02:18;31.37;36.92
67586;SHT31;55785;47.946;20.540;2022-08-03T12:04:51;31.34;36.56
67586;SHT31;55785;47.946;20.540;2022-08-03T12:07:17;31.22;36.30
67586;SHT31;55785;47.946;20.540;2022-08-03T12:10:08;31.10;37.59
67586;SHT31;55785;47.946;20.540;2022-08-03T12:12:34;30.81;37.70
67586;SHT31;55785;47.946;20.540;2022-08-03T12:14:59;30.62;38.28
67586;SHT31;55785;47.946;20.540;2022-08-03T12:17:51;30.55;37.17
67586;SHT31;55785;47.946;20.540;2022-08-03T12:20:21;30.41;37.64
67586;SHT31;55785;47.946;20.540;2022-08-03T12:22:47;30.72;36.76
67586;SHT31;55785;47.946;20.540;2022-08-03T12:25:23;31.33;38.00
67586;SHT31;55785;47.946;20.540;2022-08-03T12:27:50;31.03;36.70
67586;SHT31;55785;47.946;20.540;2022-08-03T12:30:16;30.81;37.13
67586;SHT31;55785;47.946;20.540;2022-08-03T12:32:42;31.40;37.03
67586;SHT31;55785;47.946;20.540;2022-08-03T12:35:08;31.99;36.13
67586;SHT31;55785;47.946;20.540;2022-08-03T12:37:34;32.06;35.14
67586;SHT31;55785;47.946;20.540;2022-08-03T12:40:00;32.35;34.51
67586;SHT31;55785;47.946;20.540;2022-08-03T12:42:33;32.66;33.84
67586;SHT31;55785;47.946;20.540;2022-08-03T12:44:58;32.72;33.05
67586;SHT31;55785;47.946;20.540;2022-08-03T12:47:23;33.04;34.62
67586;SHT31;55785;47.946;20.540;2022-08-03T12:49:52;33.45;33.83
67586;SHT31;55785;47.946;20.540;2022-08-03T12:52:20;33.17;33.51
67586;SHT31;55785;47.946;20.540;2022-08-03T12:54:56;32.66;34.57
67586;SHT31;55785;47.946;20.540;2022-08-03T12:57:23;32.48;34.07
67586;SHT31;55785;47.946;20.540;2022-08-03T12:59:48;32.04;34.80
67586;SHT31;55785;47.946;20.540;2022-08-03T13:02:19;31.43;35.32
67586;SHT31;55785;47.946;20.540;2022-08-03T13:04:45;30.60;36.93
67586;SHT31;55785;47.946;20.540;2022-08-03T13:07:12;30.58;37.74
67586;SHT31;55785;47.946;20.540;2022-08-03T13:12:12;30.40;37.86
67586;SHT31;55785;47.946;20.540;2022-08-03T13:14:39;30.20;38.61
67586;SHT31;55785;47.946;20.540;2022-08-03T13:17:05;30.16;38.56
67586;SHT31;55785;47.946;20.540;2022-08-03T13:19:35;30.17;37.98
67586;SHT31;55785;47.946;20.540;2022-08-03T13:22:01;30.12;37.60
67586;SHT31;55785;47.946;20.540;2022-08-03T13:24:34;29.97;37.98
67586;SHT31;55785;47.946;20.540;2022-08-03T13:26:59;29.89;38.15
67586;SHT31;55785;47.946;20.540;2022-08-03T13:29:25;29.90;38.48
67586;SHT31;55785;47.946;20.540;2022-08-03T13:31:50;30.35;36.77
67586;SHT31;55785;47.946;20.540;2022-08-03T13:34:15;31.02;37.18
67586;SHT31;55785;47.946;20.540;2022-08-03T13:36:41;31.51;36.11
67586;SHT31;55785;47.946;20.540;2022-08-03T13:39:06;31.40;35.20
67586;SHT31;55785;47.946;20.540;2022-08-03T13:41:32;31.87;35.98
67586;SHT31;55785;47.946;20.540;2022-08-03T13:43:57;32.15;35.13
67586;SHT31;55785;47.946;20.540;2022-08-03T13:46:25;31.81;35.52
67586;SHT31;55785;47.946;20.540;2022-08-03T13:48:51;31.19;36.70
67586;SHT31;55785;47.946;20.540;2022-08-03T13:51:16;31.12;36.90
67586;SHT31;55785;47.946;20.540;2022-08-03T13:53:41;30.62;36.57
67586;SHT31;55785;47.946;20.540;2022-08-03T13:56:07;30.83;36.86
67586;SHT31;55785;47.946;20.540;2022-08-03T13:58:32;30.67;37.22
67586;SHT31;55785;47.946;20.540;2022-08-03T14:00:57;30.62;38.81
67586;SHT31;55785;47.946;20.540;2022-08-03T14:03:23;30.31;37.57
67586;SHT31;55785;47.946;20.540;2022-08-03T14:05:48;30.23;37.96
67586;SHT31;55785;47.946;20.540;2022-08-03T14:08:13;30.07;38.83
67586;SHT31;55785;47.946;20.540;2022-08-03T14:10:41;29.87;38.92
67586;SHT31;55785;47.946;20.540;2022-08-03T14:13:07;29.97;39.62
67586;SHT31;55785;47.946;20.540;2022-08-03T14:15:33;29.89;39.05
67586;SHT31;55785;47.946;20.540;2022-08-03T14:17:58;29.89;38.67
67586;SHT31;55785;47.946;20.540;2022-08-03T14:20:23;29.89;38.32
67586;SHT31;55785;47.946;20.540;2022-08-03T14:22:49;30.12;39.51
67586;SHT31;55785;47.946;20.540;2022-08-03T14:25:14;30.17;37.62
67586;SHT31;55785;47.946;20.540;2022-08-03T14:27:40;30.13;37.83
67586;SHT31;55785;47.946;20.540;2022-08-03T14:30:05;30.07;38.45
67586;SHT31;55785;47.946;20.540;2022-08-03T14:32:31;29.86;38.80
67586;SHT31;55785;47.946;20.540;2022-08-03T14:34:56;29.90;37.72
67586;SHT31;55785;47.946;20.540;2022-08-03T14:37:21;29.80;38.79
67586;SHT31;55785;47.946;20.540;2022-08-03T14:39:47;29.70;39.19
67586;SHT31;55785;47.946;20.540;2022-08-03T14:42:13;29.52;40.75
67586;SHT31;55785;47.946;20.540;2022-08-03T14:44:38;29.51;39.88
67586;SHT31;55785;47.946;20.540;2022-08-03T14:47:04;29.51;39.04
67586;SHT31;55785;47.946;20.540;2022-08-03T14:49:29;29.63;40.60
67586;SHT31;55785;47.946;20.540;2022-08-03T14:51:54;29.76;39.60
67586;SHT31;55785;47.946;20.540;2022-08-03T14:54:21;29.69;38.41
67586;SHT31;55785;47.946;20.540;2022-08-03T14:56:46;29.75;38.33
67586;SHT31;55785;47.946;20.540;2022-08-03T14:59:11;29.75;38.16
67586;SHT31;55785;47.946;20.540;2022-08-03T15:01:36;29.80;37.92
67586;SHT31;55785;47.946;20.540;2022-08-03T15:04:02;29.90;38.37
67586;SHT31;55785;47.946;20.540;2022-08-03T15:06:27;30.28;37.83
67586;SHT31;55785;47.946;20.540;2022-08-03T15:08:52;30.71;36.94
67586;SHT31;55785;47.946;20.540;2022-08-03T15:11:18;31.08;36.84
67586;SHT31;55785;47.946;20.540;2022-08-03T15:13:43;30.85;36.89
67586;SHT31;55785;47.946;20.540;2022-08-03T15:16:08;30.44;37.69
67586;SHT31;55785;47.946;20.540;2022-08-03T15:18:34;30.30;38.18
67586;SHT31;55785;47.946;20.540;2022-08-03T15:20:59;30.21;38.69
67586;SHT31;55785;47.946;20.540;2022-08-03T15:23:24;30.20;38.17
67586;SHT31;55785;47.946;20.540;2022-08-03T15:25:50;30.04;38.84
67586;SHT31;55785;47.946;20.540;2022-08-03T15:28:15;29.86;37.37
67586;SHT31;55785;47.946;20.540;2022-08-03T15:30:40;30.00;39.46
67586;SHT31;55785;47.946;20.540;2022-08-03T15:33:06;29.55;40.30
67586;SHT31;55785;47.946;20.540;2022-08-03T15:35:31;29.63;39.98
67586;SHT31;55785;47.946;20.540;2022-08-03T15:37:56;29.83;37.98
67586;SHT31;55785;47.946;20.540;2022-08-03T15:40:21;29.72;39.39
67586;SHT31;55785;47.946;20.540;2022-08-03T15:42:47;29.62;39.16